Time;durP1;ratioP1;P1;durP2;ratioP2;P2;SDS_P1;SDS_P2;PMS_P1;PMS_P2;Temp;Humidity;BMP_temperature;BMP_pressure;BME280_temperature;BME280_humidity;BME280_pressure;Samples;Min_cycle;Max_cycle;Signal;HPM_P1;HPM_P2
2024/01/27 00:00:26;;;;;;;8.77;1.50;;;6.90;99.90;;;;;;5013456;28;20095;-62
2024/01/27 00:02:52;;;;;;;7.93;1.35;;;6.90;99.90;;;;;;4998741;28;20100;-62
2024/01/27 00:05:18;;;;;;;6.07;1.33;;;6.90;99.90;;;;;;4997968;28;20507;-62
2024/01/27 00:07:44;;;;;;;11.63;1.40;;;6.80;99.90;;;;;;4999422;28;20034;-62
2024/01/27 00:10:09;;;;;;;11.10;1.63;;;6.80;99.90;;;;;;4997557;28;20045;-62
2024/01/27 00:12:36;;;;;;;14.70;1.83;;;6.80;99.90;;;;;;4996771;28;20041;-62
2024/01/27 00:15:02;;;;;;;8.05;1.95;;;6.70;99.90;;;;;;4997727;28;20111;-62
2024/01/27 00:17:27;;;;;;;13.30;1.80;;;6.70;99.90;;;;;;4996841;28;20037;-62
2024/01/27 00:19:54;;;;;;;17.35;2.25;;;6.70;99.90;;;;;;4996966;28;20029;-62
2024/01/27 00:22:20;;;;;;;7.57;1.27;;;6.70;99.90;;;;;;4996795;28;20605;-62
2024/01/27 00:24:46;;;;;;;10.13;2.33;;;6.80;99.90;;;;;;4998617;28;20104;-62
2024/01/27 00:27:12;;;;;;;9.07;1.20;;;6.80;99.90;;;;;;4998914;28;20038;-62
2024/01/27 00:29:38;;;;;;;15.70;2.13;;;6.90;99.90;;;;;;4996696;28;20042;-62
2024/01/27 00:32:04;;;;;;;8.82;1.83;;;6.90;99.90;;;;;;4998904;28;20040;-63
2024/01/27 00:34:30;;;;;;;5.45;1.20;;;6.90;99.90;;;;;;5013329;28;20133;-62
2024/01/27 00:36:55;;;;;;;11.00;1.98;;;6.90;99.90;;;;;;4998282;28;20092;-62
2024/01/27 00:39:22;;;;;;;7.30;1.10;;;6.90;99.90;;;;;;4994675;28;20137;-63
2024/01/27 00:41:48;;;;;;;10.43;1.67;;;6.80;99.90;;;;;;4998596;28;20091;-63
2024/01/27 00:44:14;;;;;;;12.93;1.48;;;6.90;99.90;;;;;;4997159;28;20029;-62
2024/01/27 00:46:40;;;;;;;12.32;2.03;;;6.90;99.90;;;;;;4997992;28;20121;-63
2024/01/27 00:49:06;;;;;;;18.23;2.08;;;6.90;99.90;;;;;;4999204;28;20129;-62
2024/01/27 00:51:32;;;;;;;6.03;1.73;;;6.80;99.90;;;;;;4995643;28;20026;-62
2024/01/27 00:53:58;;;;;;;10.18;1.38;;;6.80;99.90;;;;;;4997019;28;20038;-62
2024/01/27 00:56:24;;;;;;;10.88;1.85;;;6.80;99.90;;;;;;4997307;28;20030;-62
2024/01/27 00:58:49;;;;;;;10.82;1.75;;;6.80;99.90;;;;;;4999307;28;20033;-62
2024/01/27 01:01:15;;;;;;;17.27;2.13;;;6.70;99.90;;;;;;4996395;28;20045;-62
2024/01/27 01:03:41;;;;;;;14.93;2.65;;;6.70;99.90;;;;;;4996728;28;20034;-62
2024/01/27 01:06:07;;;;;;;13.55;2.50;;;6.60;99.90;;;;;;4996207;28;20022;-62
2024/01/27 01:08:32;;;;;;;13.52;1.85;;;6.60;99.90;;;;;;4999279;28;20029;-62
2024/01/27 01:10:58;;;;;;;13.50;2.38;;;6.60;99.90;;;;;;4998682;28;20042;-62
2024/01/27 01:13:24;;;;;;;14.65;2.25;;;6.60;99.90;;;;;;4997274;28;20033;-62
2024/01/27 01:15:50;;;;;;;12.95;1.55;;;6.50;99.90;;;;;;4993720;28;20034;-62
2024/01/27 01:18:16;;;;;;;9.85;1.85;;;6.60;99.90;;;;;;4996448;28;20037;-62
2024/01/27 01:20:41;;;;;;;7.85;2.28;;;6.50;99.90;;;;;;4996884;28;20030;-62
2024/01/27 01:23:07;;;;;;;10.13;1.60;;;6.60;99.90;;;;;;5000975;28;20034;-62
2024/01/27 01:25:33;;;;;;;14.35;1.90;;;6.60;99.90;;;;;;5000306;28;20025;-62
2024/01/27 01:27:59;;;;;;;11.38;2.10;;;6.70;99.90;;;;;;5000433;28;20030;-62
2024/01/27 01:30:24;;;;;;;15.07;2.45;;;6.70;99.90;;;;;;5001397;28;20030;-62
2024/01/27 01:32:51;;;;;;;16.23;2.13;;;6.70;99.90;;;;;;5001641;28;20881;-62
2024/01/27 01:35:17;;;;;;;14.98;1.73;;;6.70;99.90;;;;;;5000967;28;20037;-62
2024/01/27 01:37:42;;;;;;;10.15;1.88;;;6.70;99.90;;;;;;5000844;28;21651;-62
2024/01/27 01:40:09;;;;;;;5.57;1.40;;;6.70;99.90;;;;;;5002589;28;20083;-62
2024/01/27 01:42:34;;;;;;;16.73;2.53;;;6.80;99.90;;;;;;5001644;28;20416;-62
2024/01/27 01:45:00;;;;;;;16.35;1.50;;;6.80;99.90;;;;;;5000867;28;20065;-62
2024/01/27 01:47:26;;;;;;;8.30;1.60;;;6.70;99.90;;;;;;4999688;28;20116;-62
2024/01/27 01:49:53;;;;;;;13.23;1.55;;;6.60;99.90;;;;;;5001981;28;20022;-62
2024/01/27 01:52:20;;;;;;;11.35;2.03;;;6.60;99.90;;;;;;4999791;28;20042;-62
2024/01/27 01:54:52;;;;;;;12.60;1.88;;;6.60;99.90;;;;;;5002740;28;20654;-65
2024/01/27 01:57:18;;;;;;;8.90;1.40;;;6.60;99.90;;;;;;4997156;28;20036;-62
2024/01/27 01:59:44;;;;;;;12.40;2.50;;;6.50;99.90;;;;;;5000509;28;20030;-62
2024/01/27 02:02:09;;;;;;;13.20;1.83;;;6.50;99.90;;;;;;4999806;28;20054;-63
2024/01/27 02:04:42;;;;;;;9.40;1.60;;;6.50;99.90;;;;;;5000901;28;20030;-62
2024/01/27 02:07:09;;;;;;;7.55;1.65;;;6.50;99.90;;;;;;5001910;28;20057;-63
2024/01/27 02:09:34;;;;;;;8.82;1.38;;;6.50;99.90;;;;;;5001169;28;20117;-62
2024/01/27 02:12:01;;;;;;;8.50;1.45;;;6.50;99.90;;;;;;4997108;28;20034;-62
2024/01/27 02:14:27;;;;;;;15.13;1.30;;;6.50;99.90;;;;;;5001269;28;20034;-62
2024/01/27 02:16:56;;;;;;;9.98;1.52;;;6.50;99.90;;;;;;5001143;28;20089;-62
2024/01/27 02:19:22;;;;;;;12.93;2.53;;;6.50;99.90;;;;;;4998782;28;20797;-62
2024/01/27 02:21:48;;;;;;;12.38;2.22;;;6.40;99.90;;;;;;5001528;28;20429;-62
2024/01/27 02:24:14;;;;;;;13.90;1.98;;;6.30;99.90;;;;;;5002264;28;20038;-62
2024/01/27 02:26:40;;;;;;;15.88;1.85;;;6.10;99.90;;;;;;5001229;28;20047;-62
2024/01/27 02:29:05;;;;;;;16.33;1.42;;;6.10;99.90;;;;;;4999267;28;20104;-62
2024/01/27 02:31:31;;;;;;;13.07;2.13;;;6.00;99.90;;;;;;5001516;28;20049;-62
2024/01/27 02:33:57;;;;;;;13.48;1.90;;;6.00;99.90;;;;;;5001776;28;20030;-63
2024/01/27 02:36:23;;;;;;;10.23;2.08;;;6.00;99.90;;;;;;4999998;28;20045;-62
2024/01/27 02:38:48;;;;;;;11.50;1.85;;;6.00;99.90;;;;;;5000472;28;20029;-62
2024/01/27 02:41:14;;;;;;;16.77;1.80;;;5.90;99.90;;;;;;4999561;28;20120;-62
2024/01/27 02:43:40;;;;;;;9.23;1.50;;;5.90;99.90;;;;;;4999597;28;20029;-63
2024/01/27 02:46:12;;;;;;;8.85;1.65;;;5.90;99.90;;;;;;4999282;28;20030;-62
2024/01/27 02:48:42;;;;;;;13.82;1.60;;;6.00;99.90;;;;;;4997570;28;20053;-63
2024/01/27 02:51:08;;;;;;;13.18;1.88;;;6.00;99.90;;;;;;4999105;28;20705;-62
2024/01/27 02:53:34;;;;;;;15.27;1.77;;;5.90;99.90;;;;;;4999495;28;20061;-62
2024/01/27 02:56:00;;;;;;;12.60;1.75;;;5.80;99.90;;;;;;5000282;28;20502;-62
2024/01/27 02:58:26;;;;;;;7.53;1.75;;;5.80;99.90;;;;;;5000807;28;20045;-62
2024/01/27 03:00:51;;;;;;;11.68;2.05;;;5.80;99.90;;;;;;5000989;28;20144;-63
2024/01/27 03:03:17;;;;;;;8.85;1.27;;;5.80;99.90;;;;;;4999567;28;20041;-62
2024/01/27 03:05:43;;;;;;;9.75;1.98;;;5.80;99.90;;;;;;5000593;28;20141;-62
2024/01/27 03:08:09;;;;;;;13.57;1.30;;;5.80;99.90;;;;;;4999090;28;20033;-62
2024/01/27 03:10:35;;;;;;;11.38;2.33;;;5.80;99.90;;;;;;5000426;28;20088;-62
2024/01/27 03:13:01;;;;;;;10.35;1.88;;;5.80;99.90;;;;;;5000309;28;20058;-62
2024/01/27 03:15:26;;;;;;;15.35;2.40;;;5.80;99.90;;;;;;4998111;28;20061;-62
2024/01/27 03:17:52;;;;;;;12.82;1.88;;;5.80;99.90;;;;;;4998461;28;20113;-62
2024/01/27 03:20:18;;;;;;;17.42;1.85;;;5.80;99.90;;;;;;4998836;28;20396;-62
2024/01/27 03:22:44;;;;;;;12.98;1.85;;;5.80;99.90;;;;;;5000855;28;20045;-62
2024/01/27 03:25:10;;;;;;;11.75;1.77;;;5.80;99.90;;;;;;4999898;28;20030;-62
2024/01/27 03:27:36;;;;;;;8.98;1.48;;;5.80;99.90;;;;;;4997153;28;20022;-62
2024/01/27 03:30:03;;;;;;;9.50;1.40;;;5.80;99.90;;;;;;4999463;28;20060;-62
2024/01/27 03:32:31;;;;;;;6.75;1.25;;;5.80;99.90;;;;;;4999171;28;20030;-62
2024/01/27 03:35:01;;;;;;;9.32;1.40;;;5.70;99.90;;;;;;4999618;28;20049;-62
2024/01/27 03:37:27;;;;;;;14.25;2.58;;;5.70;99.90;;;;;;4998225;28;20469;-63
2024/01/27 03:39:53;;;;;;;10.52;1.60;;;5.60;99.90;;;;;;5000107;28;20037;-62
2024/01/27 03:42:19;;;;;;;11.45;1.85;;;5.50;99.90;;;;;;4998622;28;20711;-66
2024/01/27 03:44:44;;;;;;;10.43;1.95;;;5.50;99.90;;;;;;4996792;28;20080;-62
2024/01/27 03:47:10;;;;;;;13.55;2.33;;;5.50;99.90;;;;;;4999897;28;20717;-62
2024/01/27 03:49:36;;;;;;;12.70;2.15;;;5.50;99.90;;;;;;4997971;28;20500;-63
2024/01/27 03:52:03;;;;;;;19.90;2.00;;;5.60;99.90;;;;;;4998847;28;20048;-63
2024/01/27 03:54:29;;;;;;;14.48;2.35;;;5.60;99.90;;;;;;4999283;28;20053;-63
2024/01/27 03:56:55;;;;;;;15.88;1.42;;;5.60;99.90;;;;;;4998451;28;20068;-62
2024/01/27 03:59:21;;;;;;;12.40;1.85;;;5.70;99.90;;;;;;4998204;28;20040;-62
2024/01/27 04:01:47;;;;;;;14.95;1.88;;;5.60;99.90;;;;;;5000204;28;20026;-62
2024/01/27 04:04:13;;;;;;;14.75;1.98;;;5.60;99.90;;;;;;4998307;28;20038;-62
2024/01/27 04:06:41;;;;;;;15.45;2.22;;;5.60;99.90;;;;;;4998091;28;20033;-63
2024/01/27 04:09:11;;;;;;;10.38;1.60;;;5.60;99.90;;;;;;4997674;28;20720;-63
2024/01/27 04:11:38;;;;;;;16.83;2.08;;;5.60;99.90;;;;;;4997112;28;20029;-62
2024/01/27 04:14:05;;;;;;;8.43;1.40;;;5.60;99.90;;;;;;4996327;28;20128;-63
2024/01/27 04:16:31;;;;;;;10.07;1.50;;;5.50;99.90;;;;;;4998627;28;20080;-62
2024/01/27 04:18:57;;;;;;;17.60;2.90;;;5.50;99.90;;;;;;4999523;28;20034;-62
2024/01/27 04:21:23;;;;;;;10.27;1.73;;;5.50;99.90;;;;;;5000144;28;20030;-62
2024/01/27 04:23:49;;;;;;;12.73;2.28;;;5.50;99.90;;;;;;4997956;28;20406;-62
2024/01/27 04:26:15;;;;;;;13.20;2.10;;;5.50;99.90;;;;;;4998517;28;20049;-63
2024/01/27 04:28:41;;;;;;;13.80;1.90;;;5.50;99.90;;;;;;4997069;28;20034;-62
2024/01/27 04:31:07;;;;;;;16.75;1.77;;;5.50;99.90;;;;;;4999368;28;20034;-62
2024/01/27 04:33:33;;;;;;;11.57;1.75;;;5.50;99.90;;;;;;4998954;28;20030;-62
2024/01/27 04:35:59;;;;;;;6.60;1.38;;;5.50;99.90;;;;;;4999845;28;20775;-62
2024/01/27 04:38:25;;;;;;;16.55;1.67;;;5.50;99.90;;;;;;4998658;28;20065;-62
2024/01/27 04:40:52;;;;;;;10.07;1.60;;;5.50;99.90;;;;;;4997532;28;20740;-62
2024/01/27 04:43:20;;;;;;;9.32;1.60;;;5.50;99.90;;;;;;4999357;28;20026;-63
2024/01/27 04:45:47;;;;;;;17.35;1.65;;;5.40;99.90;;;;;;4997262;28;20818;-62
2024/01/27 04:48:13;;;;;;;13.35;1.98;;;5.40;99.90;;;;;;4997326;28;20030;-62
2024/01/27 04:50:39;;;;;;;13.60;1.67;;;5.40;99.90;;;;;;4998863;28;20494;-64
2024/01/27 04:53:05;;;;;;;12.95;1.73;;;5.40;99.90;;;;;;4997778;28;20065;-62
2024/01/27 04:55:30;;;;;;;11.25;1.83;;;5.50;99.90;;;;;;4999327;28;20069;-62
2024/01/27 04:57:58;;;;;;;14.60;2.28;;;5.50;99.90;;;;;;4997737;28;20038;-62
2024/01/27 05:00:26;;;;;;;11.50;2.17;;;5.50;99.90;;;;;;5002391;28;20036;-63
2024/01/27 05:02:52;;;;;;;11.02;2.20;;;5.50;99.90;;;;;;4998211;28;20038;-62
2024/01/27 05:05:18;;;;;;;16.33;1.92;;;5.50;99.90;;;;;;5002620;28;20084;-63
2024/01/27 05:07:44;;;;;;;12.45;1.50;;;5.60;99.90;;;;;;5003263;28;20092;-62
2024/01/27 05:10:14;;;;;;;6.60;1.77;;;5.70;99.90;;;;;;4999694;28;20041;-62
2024/01/27 05:12:40;;;;;;;9.48;2.40;;;5.80;99.90;;;;;;4998305;28;20029;-63
2024/01/27 05:15:06;;;;;;;11.35;1.40;;;5.80;99.90;;;;;;5000653;28;20401;-62
2024/01/27 05:17:32;;;;;;;14.10;1.88;;;5.90;99.90;;;;;;5001150;28;20030;-62
2024/01/27 05:19:58;;;;;;;10.23;1.92;;;6.00;99.90;;;;;;5000938;28;20029;-62
2024/01/27 05:22:24;;;;;;;11.13;1.92;;;6.00;99.90;;;;;;5002177;28;20029;-62
2024/01/27 05:24:50;;;;;;;15.98;2.50;;;6.10;99.90;;;;;;5000343;28;20025;-62
2024/01/27 05:27:15;;;;;;;15.95;2.08;;;6.20;99.90;;;;;;4998134;28;20040;-62
2024/01/27 05:29:41;;;;;;;11.40;1.80;;;6.20;99.90;;;;;;5000507;28;20030;-62
2024/01/27 05:32:07;;;;;;;16.02;2.33;;;6.20;99.90;;;;;;5003447;28;20052;-63
2024/01/27 05:34:33;;;;;;;9.48;1.42;;;6.30;99.90;;;;;;5001565;28;20117;-63
2024/01/27 05:36:59;;;;;;;11.13;1.50;;;6.30;99.90;;;;;;4999423;28;20039;-62
2024/01/27 05:39:25;;;;;;;15.63;1.85;;;6.40;99.90;;;;;;5000402;28;20033;-62
2024/01/27 05:41:51;;;;;;;13.68;1.58;;;6.50;99.90;;;;;;4999287;28;20036;-62
2024/01/27 05:44:16;;;;;;;14.10;2.15;;;6.50;99.90;;;;;;5002074;28;20026;-63
2024/01/27 05:46:42;;;;;;;8.00;1.13;;;6.50;99.90;;;;;;4999399;28;20026;-62
2024/01/27 05:49:08;;;;;;;8.85;1.63;;;6.50;99.90;;;;;;5001129;28;20025;-63
2024/01/27 05:51:33;;;;;;;20.02;2.50;;;6.50;99.90;;;;;;5001215;28;20808;-62
2024/01/27 05:53:59;;;;;;;12.55;2.30;;;6.50;99.90;;;;;;5000368;28;20040;-63
2024/01/27 05:56:25;;;;;;;11.02;2.08;;;6.50;99.90;;;;;;4997979;28;20144;-62
2024/01/27 05:58:51;;;;;;;15.68;2.45;;;6.50;99.90;;;;;;4997215;28;20091;-63
2024/01/27 06:01:20;;;;;;;16.50;2.55;;;6.50;99.90;;;;;;4999012;28;20046;-62
2024/01/27 06:03:46;;;;;;;11.27;1.98;;;6.50;99.90;;;;;;5000877;28;20026;-62
2024/01/27 06:06:12;;;;;;;15.73;1.88;;;6.50;99.90;;;;;;4999616;28;20096;-62
2024/01/27 06:08:38;;;;;;;11.40;1.35;;;6.50;99.90;;;;;;5001846;28;20100;-62
2024/01/27 06:11:04;;;;;;;12.95;2.25;;;6.50;99.90;;;;;;4998140;28;20775;-63
2024/01/27 06:13:30;;;;;;;11.32;1.40;;;6.50;99.90;;;;;;5000483;28;20033;-62
2024/01/27 06:15:55;;;;;;;7.90;1.83;;;6.50;99.90;;;;;;5002404;28;20484;-62
2024/01/27 06:18:21;;;;;;;12.52;3.30;;;6.60;99.90;;;;;;5000296;28;20026;-62
2024/01/27 06:20:47;;;;;;;10.02;1.98;;;6.60;99.90;;;;;;4998998;28;20041;-62
2024/01/27 06:23:13;;;;;;;12.32;1.77;;;6.60;99.90;;;;;;4999659;28;20050;-62
2024/01/27 06:25:40;;;;;;;14.73;2.60;;;6.60;99.90;;;;;;4999977;28;20107;-62
2024/01/27 06:28:05;;;;;;;12.63;1.58;;;6.70;99.90;;;;;;4999583;28;20046;-62
2024/01/27 06:30:31;;;;;;;15.80;2.35;;;6.70;99.90;;;;;;4999678;28;20026;-63
2024/01/27 06:32:57;;;;;;;7.80;1.88;;;6.70;99.90;;;;;;4999193;28;20034;-63
2024/01/27 06:35:22;;;;;;;13.07;1.48;;;6.70;99.90;;;;;;5001009;28;20045;-63
2024/01/27 06:37:50;;;;;;;14.10;2.10;;;6.70;99.90;;;;;;5001617;28;20027;-63
2024/01/27 06:40:16;;;;;;;17.20;2.53;;;6.80;99.90;;;;;;5000500;28;20038;-62
2024/01/27 06:42:41;;;;;;;11.30;1.40;;;6.80;99.90;;;;;;4997521;28;20482;-62
2024/01/27 06:45:08;;;;;;;9.50;1.85;;;6.80;99.90;;;;;;5000744;28;20185;-62
2024/01/27 06:47:33;;;;;;;13.88;2.63;;;6.80;99.90;;;;;;4999352;28;20565;-62
2024/01/27 06:49:59;;;;;;;7.65;1.80;;;6.80;99.90;;;;;;4999352;28;20036;-62
2024/01/27 06:52:25;;;;;;;18.38;2.90;;;6.80;99.90;;;;;;5000668;28;20034;-62
2024/01/27 06:54:51;;;;;;;8.45;1.90;;;6.90;99.90;;;;;;4999087;28;20034;-62
2024/01/27 06:57:24;;;;;;;9.68;2.20;;;6.80;99.90;;;;;;4999083;28;20064;-62
2024/01/27 06:59:55;;;;;;;18.10;2.53;;;6.80;99.90;;;;;;4997970;28;20079;-63
2024/01/27 07:02:24;;;;;;;11.20;2.22;;;6.80;99.90;;;;;;4998124;28;20037;-62
2024/01/27 07:04:50;;;;;;;10.85;1.60;;;6.80;99.90;;;;;;4998660;28;20043;-62
2024/01/27 07:07:16;;;;;;;12.82;2.10;;;6.80;99.90;;;;;;4997749;28;20034;-63
2024/01/27 07:09:42;;;;;;;14.45;1.80;;;6.80;99.90;;;;;;4997927;28;20034;-62
2024/01/27 07:12:09;;;;;;;8.82;1.60;;;6.80;99.90;;;;;;5001183;28;20061;-62
2024/01/27 07:14:35;;;;;;;10.15;1.95;;;6.80;99.90;;;;;;4999865;28;20109;-62
2024/01/27 07:17:03;;;;;;;12.70;2.28;;;6.80;99.90;;;;;;4997420;28;20045;-63
2024/01/27 07:19:29;;;;;;;10.45;1.88;;;6.80;99.90;;;;;;4997729;28;20060;-62
2024/01/27 07:21:55;;;;;;;15.65;2.20;;;6.80;99.90;;;;;;5000081;28;20062;-63
2024/01/27 07:24:20;;;;;;;8.75;1.65;;;6.80;99.90;;;;;;5003536;28;20034;-62
2024/01/27 07:26:46;;;;;;;11.50;1.95;;;6.80;99.90;;;;;;4997147;28;20062;-62
2024/01/27 07:29:12;;;;;;;11.52;2.55;;;6.90;99.90;;;;;;4996224;28;20783;-62
2024/01/27 07:31:38;;;;;;;15.63;2.58;;;6.90;99.90;;;;;;4999715;28;20025;-62
2024/01/27 07:34:06;;;;;;;14.63;2.38;;;6.80;99.90;;;;;;4980508;28;20021;-62
2024/01/27 07:36:32;;;;;;;12.75;2.22;;;6.80;99.90;;;;;;4998294;28;20034;-62
2024/01/27 07:38:58;;;;;;;11.02;1.95;;;6.90;99.90;;;;;;4998261;28;20120;-62
2024/01/27 07:41:24;;;;;;;9.35;2.08;;;6.90;99.90;;;;;;4999158;28;20689;-62
2024/01/27 07:43:51;;;;;;;20.65;3.10;;;7.00;99.90;;;;;;4998103;28;20033;-62
2024/01/27 07:46:19;;;;;;;7.88;1.70;;;7.00;99.90;;;;;;4998770;28;20034;-62
2024/01/27 07:48:45;;;;;;;13.07;2.03;;;7.10;99.90;;;;;;4996841;28;20561;-62
2024/01/27 07:51:11;;;;;;;16.98;2.60;;;7.10;99.90;;;;;;4995696;28;20480;-62
2024/01/27 07:53:37;;;;;;;10.98;1.83;;;7.20;99.90;;;;;;4995810;28;20038;-62
2024/01/27 07:56:03;;;;;;;12.65;2.28;;;7.30;99.90;;;;;;4993038;28;20026;-62
2024/01/27 07:58:29;;;;;;;8.15;1.85;;;7.30;99.90;;;;;;5001679;28;20031;-67
2024/01/27 08:00:55;;;;;;;9.77;2.08;;;7.30;99.90;;;;;;4999409;28;20507;-66
2024/01/27 08:03:21;;;;;;;7.53;1.73;;;7.30;99.90;;;;;;4995497;28;20033;-63
2024/01/27 08:05:47;;;;;;;8.70;2.08;;;7.30;99.90;;;;;;4995841;28;20026;-63
2024/01/27 08:08:12;;;;;;;10.60;1.70;;;7.30;99.90;;;;;;4998807;28;20056;-62
2024/01/27 08:10:39;;;;;;;14.93;2.50;;;7.40;99.90;;;;;;4997271;28;20038;-63
2024/01/27 08:13:05;;;;;;;13.15;2.97;;;7.50;99.90;;;;;;4996080;28;20120;-63
2024/01/27 08:15:30;;;;;;;9.45;1.95;;;7.40;99.90;;;;;;4998195;28;20382;-67
2024/01/27 08:17:56;;;;;;;14.27;2.25;;;7.50;99.90;;;;;;4998571;28;20030;-67
2024/01/27 08:20:22;;;;;;;13.85;2.00;;;7.50;99.90;;;;;;4997734;28;20029;-67
2024/01/27 08:22:51;;;;;;;15.60;2.20;;;7.60;99.90;;;;;;4999502;28;20083;-67
2024/01/27 08:25:17;;;;;;;13.23;1.95;;;7.60;99.90;;;;;;4998822;28;20021;-67
2024/01/27 08:27:43;;;;;;;16.20;2.38;;;7.70;99.90;;;;;;4998946;28;20058;-67
2024/01/27 08:30:10;;;;;;;11.27;2.60;;;7.80;99.90;;;;;;4996666;28;20117;-63
2024/01/27 08:32:36;;;;;;;12.38;2.85;;;7.80;99.90;;;;;;4998537;28;20045;-63
2024/01/27 08:35:02;;;;;;;12.68;2.05;;;7.90;99.90;;;;;;5001864;28;20557;-63
2024/01/27 08:37:28;;;;;;;16.08;2.53;;;7.90;99.90;;;;;;5000109;28;20034;-63
2024/01/27 08:39:53;;;;;;;15.25;2.22;;;7.90;99.90;;;;;;4999415;28;20033;-68
2024/01/27 08:42:19;;;;;;;10.52;2.63;;;7.90;99.90;;;;;;5003008;28;20041;-68
2024/01/27 08:44:45;;;;;;;13.18;2.42;;;8.00;99.90;;;;;;4999907;28;20081;-68
2024/01/27 08:47:11;;;;;;;8.57;1.77;;;8.00;99.90;;;;;;5002225;28;20030;-68
2024/01/27 08:49:36;;;;;;;7.28;2.25;;;8.00;99.90;;;;;;5001808;28;20030;-68
2024/01/27 08:52:03;;;;;;;12.25;1.75;;;8.10;99.90;;;;;;5000408;28;20460;-68
2024/01/27 08:54:28;;;;;;;12.73;1.90;;;8.10;99.90;;;;;;5002563;28;20034;-67
2024/01/27 08:56:54;;;;;;;16.00;2.42;;;8.10;99.90;;;;;;4999583;28;20576;-68
2024/01/27 08:59:20;;;;;;;14.00;2.50;;;8.20;99.90;;;;;;4999435;28;20035;-63
2024/01/27 09:01:46;;;;;;;19.38;3.30;;;8.30;99.90;;;;;;5000433;28;20781;-63
2024/01/27 09:04:12;;;;;;;13.75;2.45;;;8.30;99.90;;;;;;5001086;28;20085;-62
2024/01/27 09:06:38;;;;;;;15.02;2.10;;;8.40;99.90;;;;;;5002545;28;20053;-63
2024/01/27 09:09:04;;;;;;;21.75;2.40;;;8.40;99.90;;;;;;5000391;28;20057;-63
2024/01/27 09:11:34;;;;;;;18.20;3.30;;;8.40;99.90;;;;;;4998116;28;20120;-63
2024/01/27 09:14:00;;;;;;;13.68;2.42;;;8.40;99.90;;;;;;5015739;28;20065;-63
2024/01/27 09:16:25;;;;;;;13.13;2.60;;;8.40;99.90;;;;;;4998713;28;20030;-63
2024/01/27 09:18:52;;;;;;;14.13;3.13;;;8.50;99.90;;;;;;5000417;28;20029;-63
2024/01/27 09:21:27;;;;;;;13.88;3.10;;;8.50;99.90;;;;;;4999131;28;20076;-64
2024/01/27 09:23:54;;;;;;;13.30;2.65;;;8.50;99.90;;;;;;5000889;28;20709;-64
2024/01/27 09:26:20;;;;;;;18.08;3.03;;;8.60;99.90;;;;;;5000878;28;20033;-63
2024/01/27 09:28:53;;;;;;;15.85;2.70;;;8.60;99.90;;;;;;4999954;28;20036;-64
2024/01/27 09:31:23;;;;;;;10.07;3.63;;;8.60;99.90;;;;;;4999857;28;20125;-64
2024/01/27 09:33:51;;;;;;;13.50;2.90;;;8.60;99.90;;;;;;4998527;28;20030;-63
2024/01/27 09:36:17;;;;;;;15.13;2.50;;;8.60;99.90;;;;;;4998295;28;20747;-63
2024/01/27 09:38:42;;;;;;;16.67;2.63;;;8.70;99.90;;;;;;4999760;28;20033;-64
2024/01/27 09:41:09;;;;;;;25.70;8.25;;;8.80;99.90;;;;;;5000331;28;20097;-63
2024/01/27 09:43:37;;;;;;;28.10;9.90;;;8.80;99.90;;;;;;4999722;28;20025;-63
2024/01/27 09:46:03;;;;;;;35.08;11.43;;;8.80;99.90;;;;;;4998116;28;20026;-63
2024/01/27 09:48:30;;;;;;;85.25;32.85;;;8.80;99.90;;;;;;4999967;28;20476;-64
2024/01/27 09:50:58;;;;;;;46.63;17.00;;;8.90;99.90;;;;;;4999958;28;20774;-64
2024/01/27 09:53:24;;;;;;;21.48;7.38;;;9.00;99.90;;;;;;4997540;28;20030;-63
2024/01/27 09:55:51;;;;;;;40.00;13.00;;;9.00;99.90;;;;;;4997892;28;20091;-64
2024/01/27 09:58:17;;;;;;;30.67;8.70;;;9.10;99.90;;;;;;4998674;28;20026;-62
2024/01/27 10:00:44;;;;;;;20.42;4.95;;;9.10;99.90;;;;;;4998533;28;20121;-62
2024/01/27 10:03:10;;;;;;;14.55;4.75;;;9.10;99.90;;;;;;4994783;28;20061;-63
2024/01/27 10:05:37;;;;;;;21.70;6.78;;;9.20;99.90;;;;;;4994833;28;20034;-62
2024/01/27 10:08:07;;;;;;;28.80;9.15;;;9.30;99.90;;;;;;4993849;28;20048;-62
2024/01/27 10:10:32;;;;;;;33.35;5.00;;;9.30;99.90;;;;;;4994803;28;20532;-62
2024/01/27 10:13:01;;;;;;;24.00;5.43;;;9.30;99.90;;;;;;4997230;28;20064;-62
2024/01/27 10:15:27;;;;;;;14.00;3.65;;;9.30;99.90;;;;;;4993011;28;20022;-66
2024/01/27 10:18:03;;;;;;;22.55;5.32;;;9.50;99.90;;;;;;4994447;28;20042;-66
2024/01/27 10:20:29;;;;;;;27.33;7.35;;;9.50;99.90;;;;;;4996272;28;20040;-66
2024/01/27 10:22:55;;;;;;;29.80;6.63;;;9.60;99.90;;;;;;4995163;28;20029;-66
2024/01/27 10:25:21;;;;;;;21.42;3.55;;;9.40;99.90;;;;;;4998609;28;20107;-67
2024/01/27 10:27:47;;;;;;;14.57;2.90;;;9.40;99.90;;;;;;4996985;28;20113;-67
2024/01/27 10:30:17;;;;;;;13.80;3.40;;;9.30;99.90;;;;;;4998962;28;20030;-68
2024/01/27 10:32:42;;;;;;;14.88;2.42;;;9.20;99.90;;;;;;4996650;28;20371;-66
2024/01/27 10:35:08;;;;;;;19.25;3.13;;;9.20;99.90;;;;;;4996534;28;20095;-62
2024/01/27 10:37:35;;;;;;;10.00;2.35;;;9.20;99.90;;;;;;4999188;28;20068;-63
2024/01/27 10:40:01;;;;;;;17.23;2.75;;;9.20;99.90;;;;;;4997566;28;20034;-62
2024/01/27 10:42:32;;;;;;;14.07;2.83;;;9.10;99.90;;;;;;4997044;28;20847;-62
2024/01/27 10:44:59;;;;;;;11.35;3.28;;;9.10;99.90;;;;;;4997595;28;20038;-62
2024/01/27 10:47:31;;;;;;;13.93;4.10;;;9.10;99.90;;;;;;4993529;28;20180;-63
2024/01/27 10:50:01;;;;;;;16.60;3.08;;;9.20;99.90;;;;;;4993556;28;20030;-63
2024/01/27 10:52:32;;;;;;;19.55;3.70;;;9.20;99.90;;;;;;4997582;28;20033;-67
2024/01/27 10:55:06;;;;;;;23.92;5.20;;;9.30;99.90;;;;;;4998831;28;20064;-68
2024/01/27 10:57:33;;;;;;;15.65;3.20;;;9.30;99.90;;;;;;4995465;28;20037;-66
2024/01/27 11:00:03;;;;;;;15.07;3.60;;;9.30;99.90;;;;;;4993644;28;20066;-67
2024/01/27 11:02:34;;;;;;;15.35;3.33;;;9.40;99.90;;;;;;4995088;28;20421;-62
2024/01/27 11:05:03;;;;;;;8.55;2.42;;;9.40;99.90;;;;;;4998929;28;20030;-62
2024/01/27 11:07:33;;;;;;;18.13;4.68;;;9.40;99.90;;;;;;4992264;28;20026;-63
2024/01/27 11:09:59;;;;;;;15.35;3.35;;;9.40;99.90;;;;;;4994359;28;20541;-67
2024/01/27 11:12:26;;;;;;;11.30;2.85;;;9.30;99.90;;;;;;4997019;28;20037;-61
2024/01/27 11:14:53;;;;;;;13.05;2.92;;;9.20;99.90;;;;;;4996482;28;20165;-62
2024/01/27 11:17:21;;;;;;;14.63;3.22;;;9.10;99.90;;;;;;4994292;28;20045;-62
2024/01/27 11:19:47;;;;;;;15.82;3.35;;;9.20;99.90;;;;;;4995192;28;20038;-68
2024/01/27 11:22:33;;;;;;;13.90;2.97;;;9.30;99.90;;;;;;4996694;28;20031;-62
2024/01/27 11:25:17;;;;;;;15.23;3.85;;;9.50;99.90;;;;;;4994147;28;20032;-61
2024/01/27 11:27:45;;;;;;;20.23;3.67;;;9.70;99.90;;;;;;4991638;28;20452;-67
2024/01/27 11:30:33;;;;;;;13.48;3.45;;;9.80;99.90;;;;;;4992213;28;20034;-66
2024/01/27 11:33:01;;;;;;;9.02;2.72;;;9.90;99.90;;;;;;4992248;28;20033;-68
2024/01/27 11:35:27;;;;;;;14.20;2.47;;;10.00;99.90;;;;;;4993852;28;20744;-68
2024/01/27 11:37:54;;;;;;;12.73;2.45;;;9.80;99.90;;;;;;4992684;28;20030;-67
2024/01/27 11:40:21;;;;;;;13.15;2.45;;;9.60;99.90;;;;;;4995886;28;20037;-66
2024/01/27 11:43:00;;;;;;;11.05;3.00;;;9.60;99.90;;;;;;4995736;28;20132;-62
2024/01/27 11:45:29;;;;;;;12.80;2.60;;;9.60;99.90;;;;;;4994392;28;20054;-67
2024/01/27 11:47:56;;;;;;;9.88;2.38;;;9.70;99.90;;;;;;4993804;28;20030;-67
2024/01/27 11:50:22;;;;;;;13.52;2.65;;;9.70;99.90;;;;;;4992797;28;20037;-67
2024/01/27 11:52:49;;;;;;;10.50;2.55;;;9.80;99.90;;;;;;4990510;28;20164;-66
2024/01/27 11:55:15;;;;;;;9.27;2.97;;;9.80;99.90;;;;;;4992292;28;20030;-66
2024/01/27 11:57:42;;;;;;;5.63;1.90;;;9.90;99.90;;;;;;4986989;28;20042;-62
2024/01/27 12:00:11;;;;;;;7.15;2.33;;;10.00;99.90;;;;;;4987961;28;20095;-67
2024/01/27 12:02:38;;;;;;;12.88;2.28;;;10.00;99.90;;;;;;4991603;28;20029;-63
2024/01/27 12:05:05;;;;;;;23.83;2.90;;;9.80;99.90;;;;;;4993657;28;20038;-67
2024/01/27 12:07:31;;;;;;;9.77;2.38;;;9.70;99.90;;;;;;4991954;28;20036;-62
2024/01/27 12:09:59;;;;;;;13.23;2.22;;;9.60;99.90;;;;;;4990016;28;20030;-67
2024/01/27 12:12:24;;;;;;;12.35;2.25;;;9.50;99.90;;;;;;4991105;28;20033;-62
2024/01/27 12:14:51;;;;;;;13.48;2.40;;;9.50;99.90;;;;;;4991184;28;20034;-62
2024/01/27 12:17:18;;;;;;;20.40;2.72;;;9.60;99.90;;;;;;4994112;28;20041;-67
2024/01/27 12:19:48;;;;;;;11.70;2.60;;;9.60;99.90;;;;;;4994281;28;20022;-62
2024/01/27 12:22:28;;;;;;;13.50;3.20;;;9.50;99.90;;;;;;4988237;28;20027;-62
2024/01/27 12:24:55;;;;;;;19.10;3.10;;;9.60;99.90;;;;;;4992445;28;20029;-67
2024/01/27 12:27:23;;;;;;;10.93;3.03;;;9.60;99.90;;;;;;4995201;28;20030;-67
2024/01/27 12:29:49;;;;;;;18.25;3.10;;;9.80;99.90;;;;;;4993172;28;20037;-63
2024/01/27 12:32:17;;;;;;;13.93;2.83;;;10.00;99.90;;;;;;4990858;28;20025;-68
2024/01/27 12:34:43;;;;;;;14.45;2.75;;;10.10;99.90;;;;;;4992439;28;20037;-63
2024/01/27 12:37:11;;;;;;;12.35;2.53;;;10.20;99.90;;;;;;4992630;28;20117;-67
2024/01/27 12:39:38;;;;;;;10.20;2.63;;;10.30;99.90;;;;;;4992551;28;20042;-63
2024/01/27 12:42:04;;;;;;;8.45;2.13;;;10.50;99.90;;;;;;4991143;28;20046;-63
2024/01/27 12:44:30;;;;;;;15.88;2.80;;;10.40;99.90;;;;;;4991625;28;20040;-62